Time;durP1;ratioP1;P1;durP2;ratioP2;P2;SDS_P1;SDS_P2;PMS_P1;PMS_P2;Temp;Humidity;BMP_temperature;BMP_pressure;BME280_temperature;BME280_humidity;BME280_pressure;Samples;Min_cycle;Max_cycle;Signal;HPM_P1;HPM_P2
2022/05/17 00:01:48;;;;;;;22.83;9.23;;;15.50;83.40;;;;;;5073393;28;20051;-69
2022/05/17 00:04:14;;;;;;;22.73;8.68;;;15.50;83.50;;;;;;5078218;28;20097;-68
2022/05/17 00:06:39;;;;;;;21.85;9.05;;;15.50;83.60;;;;;;5088321;28;20052;-69
2022/05/17 00:09:05;;;;;;;24.58;9.32;;;15.50;83.50;;;;;;5074567;28;20051;-70
2022/05/17 00:11:30;;;;;;;23.38;8.63;;;15.60;83.60;;;;;;5073819;28;20041;-69
2022/05/17 00:13:56;;;;;;;25.58;12.30;;;15.60;83.70;;;;;;5069270;28;20049;-69
2022/05/17 00:16:22;;;;;;;22.50;9.05;;;15.60;83.70;;;;;;5081754;28;20569;-69
2022/05/17 00:18:48;;;;;;;22.30;8.80;;;15.60;83.70;;;;;;5075621;28;20072;-69
2022/05/17 00:21:14;;;;;;;26.67;8.75;;;15.60;83.70;;;;;;5077347;28;20055;-69
2022/05/17 00:23:41;;;;;;;23.98;8.65;;;15.60;83.80;;;;;;5079740;28;20036;-69
2022/05/17 00:26:08;;;;;;;30.67;11.23;;;15.60;83.70;;;;;;5091157;28;20048;-69
2022/05/17 00:28:34;;;;;;;27.45;9.23;;;15.50;83.80;;;;;;5083153;28;20085;-70
2022/05/17 00:31:00;;;;;;;20.35;9.25;;;15.60;83.90;;;;;;5086843;28;20037;-69
2022/05/17 00:33:27;;;;;;;24.55;8.98;;;15.60;84.10;;;;;;5086653;28;21063;-70
2022/05/17 00:35:53;;;;;;;25.42;9.68;;;15.50;84.10;;;;;;5074062;28;20044;-69
2022/05/17 00:38:19;;;;;;;23.13;8.95;;;15.50;84.10;;;;;;5076021;28;20561;-69
2022/05/17 00:40:45;;;;;;;24.25;10.30;;;15.50;84.50;;;;;;5072974;28;20123;-69
2022/05/17 00:43:26;;;;;;;18.67;9.15;;;15.50;84.50;;;;;;5081878;28;20551;-69
2022/05/17 00:45:52;;;;;;;23.93;9.70;;;15.50;84.40;;;;;;5090874;28;20040;-69
2022/05/17 00:48:18;;;;;;;27.83;10.25;;;15.50;84.30;;;;;;5078925;28;20086;-69
2022/05/17 00:50:47;;;;;;;22.70;9.07;;;15.50;84.50;;;;;;5088286;28;20127;-69
2022/05/17 00:53:21;;;;;;;23.10;9.40;;;15.50;84.50;;;;;;5079301;28;20051;-69
2022/05/17 00:56:02;;;;;;;24.30;10.18;;;15.50;84.50;;;;;;5092084;28;20075;-69
2022/05/17 00:58:33;;;;;;;23.30;10.27;;;15.50;84.30;;;;;;5074919;28;20047;-69
2022/05/17 01:01:13;;;;;;;18.52;9.23;;;15.40;84.40;;;;;;5076785;28;20115;-69
2022/05/17 01:04:16;;;;;;;25.17;9.50;;;15.50;84.40;;;;;;5081925;28;20040;-69
2022/05/17 01:06:57;;;;;;;19.75;9.27;;;15.50;84.20;;;;;;5079101;28;20139;-69
2022/05/17 01:09:24;;;;;;;17.63;8.60;;;15.40;84.30;;;;;;5089092;28;20082;-70
2022/05/17 01:11:49;;;;;;;24.00;9.00;;;15.40;84.20;;;;;;5084315;28;20562;-70
2022/05/17 01:17:00;;;;;;;15.60;7.53;;;15.30;84.20;;;;;;5082517;28;20045;-70
2022/05/17 01:19:25;;;;;;;21.30;8.82;;;15.30;84.30;;;;;;5089065;28;20126;-70
2022/05/17 01:21:51;;;;;;;19.98;8.57;;;15.40;84.20;;;;;;5078244;28;20043;-70
2022/05/17 01:24:17;;;;;;;20.58;9.65;;;15.40;84.20;;;;;;5073608;28;20390;-69
2022/05/17 01:26:47;;;;;;;24.83;9.13;;;15.30;84.10;;;;;;5071764;28;20047;-69
2022/05/17 01:29:13;;;;;;;18.50;7.97;;;15.30;84.30;;;;;;5071552;28;20048;-70
2022/05/17 01:31:40;;;;;;;20.17;8.18;;;15.30;84.20;;;;;;5081598;28;20028;-69
2022/05/17 01:34:08;;;;;;;28.75;9.43;;;15.30;84.20;;;;;;5079666;28;20471;-69
2022/05/17 01:36:34;;;;;;;20.45;9.30;;;15.20;84.30;;;;;;5074185;28;20072;-70
2022/05/17 01:38:59;;;;;;;20.27;7.93;;;15.20;84.40;;;;;;5073341;28;20071;-69
2022/05/17 01:41:25;;;;;;;18.30;8.90;;;15.20;84.30;;;;;;5078443;28;20044;-69
2022/05/17 01:43:53;;;;;;;19.77;10.65;;;15.20;84.30;;;;;;5072974;28;20047;-70
2022/05/17 01:46:19;;;;;;;19.65;9.15;;;15.20;84.60;;;;;;5083101;28;20489;-69
2022/05/17 01:48:44;;;;;;;21.38;8.30;;;15.20;84.50;;;;;;5079275;28;20051;-69
2022/05/17 01:51:11;;;;;;;21.38;8.60;;;15.20;84.40;;;;;;5071930;28;20405;-70
2022/05/17 01:53:37;;;;;;;22.10;7.93;;;15.10;84.50;;;;;;5077361;28;20051;-70
2022/05/17 01:56:04;;;;;;;23.83;8.27;;;15.20;84.50;;;;;;5072737;28;20036;-69
2022/05/17 01:58:30;;;;;;;27.17;8.88;;;15.10;84.40;;;;;;5071625;28;20044;-70
2022/05/17 02:00:55;;;;;;;23.35;8.60;;;15.10;84.40;;;;;;5077685;28;20036;-70
2022/05/17 02:03:21;;;;;;;20.52;7.47;;;15.10;84.40;;;;;;5074660;28;20115;-69
2022/05/17 02:05:47;;;;;;;17.60;7.93;;;15.10;84.50;;;;;;5074667;28;20033;-69
2022/05/17 02:08:12;;;;;;;19.98;8.32;;;15.10;84.40;;;;;;5080305;28;20436;-69
2022/05/17 02:10:38;;;;;;;24.65;8.48;;;15.10;84.50;;;;;;5090181;28;20867;-70
2022/05/17 02:13:04;;;;;;;23.60;8.63;;;15.10;84.50;;;;;;5082286;28;20063;-69
2022/05/17 02:15:30;;;;;;;24.83;9.85;;;15.10;84.40;;;;;;5071792;28;20052;-69
2022/05/17 02:17:56;;;;;;;13.48;8.15;;;15.10;84.40;;;;;;5079072;28;20058;-70
2022/05/17 02:20:23;;;;;;;16.40;7.72;;;15.10;84.50;;;;;;5071151;28;20080;-69
2022/05/17 02:22:48;;;;;;;18.45;8.50;;;15.10;84.50;;;;;;5083909;28;20048;-69
2022/05/17 02:25:15;;;;;;;19.65;8.20;;;15.10;84.50;;;;;;5074719;28;20047;-69
2022/05/17 02:27:40;;;;;;;22.95;8.80;;;15.10;84.50;;;;;;5088359;28;20074;-69
2022/05/17 02:30:09;;;;;;;19.90;8.73;;;15.10;84.50;;;;;;5090113;28;20100;-69
2022/05/17 02:32:35;;;;;;;23.00;9.23;;;15.10;84.60;;;;;;5090305;28;20090;-69
2022/05/17 02:35:01;;;;;;;17.17;8.60;;;15.00;84.60;;;;;;5085115;28;20064;-69
2022/05/17 02:37:26;;;;;;;20.30;8.93;;;15.10;84.70;;;;;;5080922;28;20136;-69
2022/05/17 02:39:52;;;;;;;21.35;9.00;;;15.00;84.70;;;;;;5090242;28;20043;-69
2022/05/17 02:42:17;;;;;;;14.07;7.35;;;15.00;84.70;;;;;;5086461;28;20424;-69
2022/05/17 02:44:43;;;;;;;19.45;8.45;;;15.00;84.70;;;;;;5082669;28;20044;-69
2022/05/17 02:47:10;;;;;;;19.48;9.25;;;15.00;84.70;;;;;;5080088;28;20047;-69
2022/05/17 02:49:38;;;;;;;21.65;8.77;;;15.00;84.70;;;;;;5088708;28;20048;-69
2022/05/17 02:52:04;;;;;;;20.10;8.50;;;15.00;84.70;;;;;;5089830;28;20070;-70
2022/05/17 02:54:30;;;;;;;20.00;7.65;;;14.90;84.90;;;;;;5089525;28;20036;-69
2022/05/17 02:56:56;;;;;;;16.00;7.38;;;14.90;84.80;;;;;;5071236;28;20380;-70
2022/05/17 02:59:22;;;;;;;18.77;8.73;;;14.90;84.80;;;;;;5089530;28;20404;-69
2022/05/17 03:01:48;;;;;;;21.10;8.32;;;14.90;84.90;;;;;;5088335;28;20035;-69
2022/05/17 03:04:13;;;;;;;19.92;8.20;;;14.90;84.80;;;;;;5089572;28;20047;-69
2022/05/17 03:06:44;;;;;;;21.67;7.85;;;14.80;84.80;;;;;;5071258;28;20067;-69
2022/05/17 03:09:11;;;;;;;21.73;9.50;;;14.80;85.00;;;;;;5087427;28;20040;-69
2022/05/17 03:11:41;;;;;;;18.13;8.02;;;14.80;85.00;;;;;;5089371;28;20044;-69
2022/05/17 03:14:08;;;;;;;13.80;7.10;;;14.80;85.00;;;;;;5080725;28;20131;-70
2022/05/17 03:16:34;;;;;;;17.38;8.10;;;14.80;85.00;;;;;;5070173;28;20059;-69
2022/05/17 03:19:00;;;;;;;21.95;9.48;;;14.70;85.00;;;;;;5069211;28;20044;-69
2022/05/17 03:21:26;;;;;;;17.92;8.23;;;14.70;85.10;;;;;;5070401;28;20072;-69
2022/05/17 03:23:52;;;;;;;21.75;8.50;;;14.60;85.40;;;;;;5068879;28;20137;-70
2022/05/17 03:26:18;;;;;;;16.65;9.15;;;14.60;85.50;;;;;;5084074;28;20051;-69
2022/05/17 03:28:44;;;;;;;17.00;7.88;;;14.50;85.50;;;;;;5089566;28;20493;-69
2022/05/17 03:31:10;;;;;;;19.98;7.97;;;14.50;85.40;;;;;;5084249;28;20036;-70
2022/05/17 03:33:37;;;;;;;17.58;6.85;;;14.50;85.50;;;;;;5069458;28;20080;-70
2022/05/17 03:36:04;;;;;;;15.55;7.65;;;14.50;85.40;;;;;;5080726;28;20068;-68
2022/05/17 03:38:29;;;;;;;16.30;7.32;;;14.50;85.40;;;;;;5077751;28;20046;-69
2022/05/17 03:40:58;;;;;;;13.75;6.72;;;14.50;85.40;;;;;;5079244;28;20040;-69
2022/05/17 03:43:24;;;;;;;17.88;7.88;;;14.50;85.50;;;;;;5069112;28;20041;-69
2022/05/17 03:45:50;;;;;;;24.45;7.35;;;14.40;85.70;;;;;;5080982;28;20405;-69
2022/05/17 03:48:16;;;;;;;15.13;6.75;;;14.40;85.70;;;;;;5075023;28;20051;-69
2022/05/17 03:50:42;;;;;;;15.32;6.20;;;14.50;85.70;;;;;;5083265;28;20044;-68
2022/05/17 03:53:08;;;;;;;15.70;7.30;;;14.40;85.70;;;;;;5083568;28;20051;-69
2022/05/17 03:55:34;;;;;;;18.83;6.20;;;14.40;85.60;;;;;;5076879;28;20044;-68
2022/05/17 03:58:00;;;;;;;21.65;6.63;;;14.40;85.70;;;;;;5076748;28;20559;-68
2022/05/17 04:00:26;;;;;;;17.08;6.65;;;14.40;85.70;;;;;;5072997;28;20056;-68
2022/05/17 04:02:51;;;;;;;14.80;6.57;;;14.40;85.90;;;;;;5077175;28;20446;-69
2022/05/17 04:05:17;;;;;;;23.42;8.48;;;14.40;85.80;;;;;;5072891;28;20040;-69
2022/05/17 04:07:43;;;;;;;15.88;6.43;;;14.50;85.80;;;;;;5073003;28;20093;-69
2022/05/17 04:10:12;;;;;;;17.42;6.82;;;14.50;85.90;;;;;;5080358;28;20948;-70
2022/05/17 04:12:37;;;;;;;14.85;6.32;;;14.50;85.80;;;;;;5082703;28;20059;-70
2022/05/17 04:15:06;;;;;;;14.32;5.75;;;14.50;85.80;;;;;;5092766;28;20555;-69
2022/05/17 04:17:32;;;;;;;20.30;6.70;;;14.50;85.80;;;;;;5091041;28;20119;-69
2022/05/17 04:20:00;;;;;;;15.00;6.22;;;14.60;85.60;;;;;;5079149;28;20637;-69
2022/05/17 04:22:27;;;;;;;21.35;6.65;;;14.60;85.70;;;;;;5076544;28;20390;-68
2022/05/17 04:24:54;;;;;;;21.08;6.13;;;14.60;85.60;;;;;;5090222;28;20048;-68
2022/05/17 04:27:19;;;;;;;23.08;6.15;;;14.60;85.70;;;;;;5088782;28;20067;-69
2022/05/17 04:29:45;;;;;;;17.98;6.72;;;14.60;85.70;;;;;;5082604;28;20408;-68
2022/05/17 04:32:10;;;;;;;16.30;6.53;;;14.60;85.60;;;;;;5074339;28;20040;-68
2022/05/17 04:34:36;;;;;;;16.80;5.55;;;14.60;85.70;;;;;;5078049;28;20511;-69
2022/05/17 04:37:02;;;;;;;19.30;5.95;;;14.70;85.70;;;;;;5074205;28;20051;-68
2022/05/17 04:39:28;;;;;;;12.27;6.05;;;14.70;85.80;;;;;;5090171;28;20036;-68
2022/05/17 04:41:53;;;;;;;19.35;5.88;;;14.70;85.60;;;;;;5077677;28;20101;-68
2022/05/17 04:44:19;;;;;;;12.13;5.78;;;14.70;85.60;;;;;;5072189;28;20492;-68
2022/05/17 04:46:45;;;;;;;15.85;6.10;;;14.80;85.70;;;;;;5072209;28;20044;-69
2022/05/17 04:49:10;;;;;;;18.75;6.35;;;14.80;85.70;;;;;;5072994;28;20105;-69
2022/05/17 04:51:36;;;;;;;18.17;5.90;;;14.90;85.60;;;;;;5080104;28;20063;-69
2022/05/17 04:54:02;;;;;;;13.57;6.65;;;14.90;85.60;;;;;;5075098;28;20048;-69
2022/05/17 04:56:28;;;;;;;19.23;6.72;;;15.00;85.60;;;;;;5084335;28;20040;-69
2022/05/17 04:58:54;;;;;;;12.40;5.28;;;15.00;85.70;;;;;;5072010;28;20040;-69
2022/05/17 05:01:21;;;;;;;16.85;5.80;;;15.10;85.60;;;;;;5083235;28;20083;-70
2022/05/17 05:03:47;;;;;;;15.07;5.80;;;15.10;85.60;;;;;;5091415;28;20407;-68
2022/05/17 05:06:12;;;;;;;20.30;6.25;;;15.20;85.60;;;;;;5082156;28;20049;-70
2022/05/17 05:08:38;;;;;;;17.63;5.38;;;15.20;85.70;;;;;;5073281;28;20070;-70
2022/05/17 05:11:04;;;;;;;20.45;7.50;;;15.30;85.70;;;;;;5071326;28;20393;-70
2022/05/17 05:13:29;;;;;;;21.08;6.20;;;15.40;85.60;;;;;;5075566;28;20050;-70
2022/05/17 05:15:55;;;;;;;14.25;5.45;;;15.40;85.60;;;;;;5077254;28;20523;-70
2022/05/17 05:18:21;;;;;;;18.80;5.60;;;15.50;85.90;;;;;;5071818;28;20051;-70
2022/05/17 05:20:47;;;;;;;18.48;6.00;;;15.50;85.70;;;;;;5089226;28;20044;-71
2022/05/17 05:23:13;;;;;;;19.83;6.32;;;15.60;85.70;;;;;;5088360;28;20170;-69
2022/05/17 05:25:39;;;;;;;14.23;5.50;;;15.60;85.60;;;;;;5071065;28;20087;-70
2022/05/17 05:28:09;;;;;;;19.83;6.20;;;15.60;85.50;;;;;;5071872;28;20037;-70
2022/05/17 05:30:35;;;;;;;16.35;6.15;;;15.60;85.70;;;;;;5071356;28;20044;-71
2022/05/17 05:33:01;;;;;;;15.38;6.05;;;15.60;85.70;;;;;;5071125;28;20052;-70
2022/05/17 05:35:27;;;;;;;19.13;6.00;;;15.60;85.70;;;;;;5083420;28;20044;-69
2022/05/17 05:37:54;;;;;;;16.73;6.45;;;15.60;85.70;;;;;;5090549;28;20051;-69
2022/05/17 05:40:20;;;;;;;20.63;6.10;;;15.60;85.80;;;;;;5091368;28;20040;-70
2022/05/17 05:42:48;;;;;;;16.73;5.47;;;15.60;85.70;;;;;;5090467;28;20055;-70
2022/05/17 05:45:14;;;;;;;12.75;5.30;;;15.60;85.60;;;;;;5081797;28;20055;-69
2022/05/17 05:47:40;;;;;;;16.67;6.15;;;15.60;85.80;;;;;;5075976;28;20036;-69
2022/05/17 05:50:07;;;;;;;13.32;6.65;;;15.70;85.60;;;;;;5074656;28;20081;-68
2022/05/17 05:52:34;;;;;;;10.85;4.30;;;15.70;85.60;;;;;;5079339;28;20083;-67
2022/05/17 05:55:00;;;;;;;23.95;6.15;;;15.70;85.70;;;;;;5084009;28;20488;-69
2022/05/17 05:57:27;;;;;;;18.83;6.57;;;15.80;85.40;;;;;;5080739;28;20072;-69
2022/05/17 05:59:52;;;;;;;20.23;5.85;;;15.80;85.30;;;;;;5080766;28;20036;-68
2022/05/17 06:02:19;;;;;;;27.45;7.90;;;15.80;85.30;;;;;;5071944;28;20378;-69
2022/05/17 06:04:44;;;;;;;20.23;6.18;;;15.90;85.30;;;;;;5070732;28;20147;-69
2022/05/17 06:07:10;;;;;;;26.65;7.05;;;15.90;85.30;;;;;;5089192;28;20123;-70
2022/05/17 06:09:36;;;;;;;15.73;5.88;;;15.90;85.20;;;;;;5077990;28;20036;-69
2022/05/17 06:12:01;;;;;;;23.15;5.88;;;15.90;85.20;;;;;;5070743;28;20048;-69
2022/05/17 06:14:27;;;;;;;18.90;6.32;;;16.00;85.10;;;;;;5078812;28;20043;-68
2022/05/17 06:16:53;;;;;;;26.48;6.07;;;16.00;85.00;;;;;;5090311;28;20127;-69
2022/05/17 06:19:19;;;;;;;16.20;5.55;;;16.10;85.00;;;;;;5090617;28;20169;-69
2022/05/17 06:21:45;;;;;;;23.25;6.45;;;16.10;84.80;;;;;;5082482;28;20044;-68
2022/05/17 06:24:11;;;;;;;21.33;6.45;;;16.10;84.70;;;;;;5076605;28;20037;-69
2022/05/17 06:26:37;;;;;;;12.27;5.72;;;16.10;84.60;;;;;;5075124;28;20048;-65
2022/05/17 06:29:03;;;;;;;18.67;7.38;;;16.10;84.60;;;;;;5090559;28;20039;-67
2022/05/17 06:31:28;;;;;;;19.92;7.10;;;16.20;84.50;;;;;;5081016;28;20044;-67
2022/05/17 06:33:54;;;;;;;24.15;7.10;;;16.20;84.40;;;;;;5075485;28;20481;-66
2022/05/17 06:36:20;;;;;;;17.02;7.57;;;16.20;84.40;;;;;;5070480;28;20048;-66
2022/05/17 06:38:45;;;;;;;19.92;6.28;;;16.30;84.20;;;;;;5070997;28;20043;-68
2022/05/17 06:41:11;;;;;;;16.25;6.35;;;16.30;84.10;;;;;;5070400;28;20496;-65
2022/05/17 06:43:37;;;;;;;22.33;5.82;;;16.40;84.10;;;;;;5070213;28;20044;-67
2022/05/17 06:46:03;;;;;;;20.65;7.97;;;16.40;84.00;;;;;;5070803;28;20043;-67
2022/05/17 06:48:30;;;;;;;24.08;8.13;;;16.50;83.70;;;;;;5068222;28;20037;-67
2022/05/17 06:51:05;;;;;;;21.83;7.78;;;16.40;83.60;;;;;;5068134;28;20125;-67
2022/05/17 06:53:31;;;;;;;18.17;6.45;;;16.50;83.40;;;;;;5076107;28;20125;-67
2022/05/17 06:55:58;;;;;;;23.58;7.00;;;16.40;83.30;;;;;;5088172;28;20449;-67
2022/05/17 06:58:24;;;;;;;19.50;7.03;;;16.50;83.40;;;;;;5088093;28;20044;-67
2022/05/17 07:00:50;;;;;;;22.63;6.82;;;16.60;83.30;;;;;;5086609;28;20036;-67
2022/05/17 07:03:16;;;;;;;18.05;8.13;;;16.60;83.30;;;;;;5089267;28;20059;-67
2022/05/17 07:05:42;;;;;;;25.90;7.22;;;16.60;83.30;;;;;;5089235;28;20102;-67
2022/05/17 07:08:08;;;;;;;22.60;7.50;;;16.80;83.20;;;;;;5081937;28;20048;-69
2022/05/17 07:13:18;;;;;;;15.95;6.90;;;16.90;82.90;;;;;;5076652;28;20059;-68
2022/05/17 07:15:49;;;;;;;15.05;6.75;;;16.90;82.70;;;;;;5078354;28;20417;-69
2022/05/17 07:18:17;;;;;;;19.35;8.02;;;17.00;82.50;;;;;;5082647;28;20040;-68
2022/05/17 07:20:44;;;;;;;21.08;8.07;;;17.00;82.30;;;;;;5069155;28;20050;-69
2022/05/17 07:23:11;;;;;;;15.60;5.72;;;17.00;82.30;;;;;;5071876;28;20077;-69
2022/05/17 07:25:40;;;;;;;19.00;6.72;;;17.10;82.00;;;;;;5082615;28;20488;-69
2022/05/17 07:28:07;;;;;;;21.20;6.45;;;17.10;81.60;;;;;;5089455;28;20036;-69
2022/05/17 07:30:33;;;;;;;27.70;6.97;;;17.10;81.60;;;;;;5081863;28;20036;-69
2022/05/17 07:32:58;;;;;;;17.40;6.93;;;17.10;81.10;;;;;;5076564;28;20059;-69
2022/05/17 07:35:24;;;;;;;25.92;6.95;;;17.10;81.20;;;;;;5072591;28;20044;-69
2022/05/17 07:37:50;;;;;;;23.58;7.78;;;17.20;81.20;;;;;;5089442;28;20071;-69
2022/05/17 07:40:17;;;;;;;16.42;6.05;;;17.30;81.10;;;;;;5072755;28;20052;-69
2022/05/17 07:42:43;;;;;;;25.30;7.57;;;17.30;80.30;;;;;;5071675;28;20067;-69
2022/05/17 07:45:11;;;;;;;22.40;6.90;;;17.30;80.30;;;;;;5084122;28;20484;-69
2022/05/17 07:47:37;;;;;;;15.85;5.65;;;17.40;80.00;;;;;;5088320;28;20044;-70
2022/05/17 07:50:04;;;;;;;18.55;7.07;;;17.40;80.20;;;;;;5087292;28;20123;-69
2022/05/17 07:52:29;;;;;;;15.25;4.40;;;17.50;79.70;;;;;;5080883;28;20036;-68
2022/05/17 07:54:55;;;;;;;21.60;6.70;;;17.50;79.30;;;;;;5078930;28;20133;-69
2022/05/17 07:57:22;;;;;;;20.55;6.70;;;17.50;79.10;;;;;;5078245;28;20040;-69
2022/05/17 07:59:47;;;;;;;13.77;5.38;;;17.60;78.80;;;;;;5068783;28;20044;-68
2022/05/17 08:02:13;;;;;;;12.82;4.28;;;17.60;78.40;;;;;;5069312;28;20097;-69
2022/05/17 08:04:38;;;;;;;13.63;4.43;;;17.70;78.10;;;;;;5075575;28;20049;-69
2022/05/17 08:07:04;;;;;;;16.88;4.75;;;17.80;77.60;;;;;;5075922;28;20047;-69
2022/05/17 08:09:30;;;;;;;21.38;5.97;;;17.90;77.50;;;;;;5070432;28;20079;-68
2022/05/17 08:11:55;;;;;;;18.77;5.53;;;18.00;77.30;;;;;;5068070;28;20055;-69
2022/05/17 08:14:22;;;;;;;19.15;4.82;;;17.90;76.40;;;;;;5072736;28;20051;-68
2022/05/17 08:16:48;;;;;;;19.55;5.68;;;18.00;76.50;;;;;;5084413;28;20093;-69
2022/05/17 08:19:14;;;;;;;15.45;5.28;;;18.10;76.50;;;;;;5077172;28;20545;-70
2022/05/17 08:21:40;;;;;;;13.75;4.25;;;18.10;76.50;;;;;;5073185;28;20094;-70
2022/05/17 08:24:07;;;;;;;14.30;3.95;;;18.20;76.10;;;;;;5068584;28;20080;-69
2022/05/17 08:29:17;;;;;;;15.82;3.65;;;18.30;75.70;;;;;;5080186;28;20619;-68
2022/05/17 08:33:14;;;;;;;14.98;4.28;;;18.50;75.40;;;;;;5068692;28;20040;-68
2022/05/17 08:34:28;;;;;;;19.65;5.10;;;18.50;74.90;;;;;;5073816;28;20052;-69
2022/05/17 08:36:54;;;;;;;12.23;4.00;;;18.60;74.60;;;;;;5070811;28;20467;-70
2022/05/17 08:39:19;;;;;;;13.70;4.30;;;18.70;74.10;;;;;;5077584;28;20523;-69
2022/05/17 08:41:53;;;;;;;13.50;4.05;;;18.70;73.40;;;;;;5073993;28;20124;-69
2022/05/17 08:44:29;;;;;;;12.75;3.63;;;18.80;73.80;;;;;;5072538;28;20044;-67
2022/05/17 08:47:16;;;;;;;16.10;3.85;;;18.80;73.60;;;;;;5073432;28;20048;-70
2022/05/17 08:49:58;;;;;;;12.63;3.50;;;18.90;72.90;;;;;;5091981;28;20048;-70
2022/05/17 08:52:24;;;;;;;;;;;19.00;72.40;;;;;;5073102;28;20056;-69
2022/05/17 08:55:29;;;;;;;18.15;3.53;;;19.00;72.60;;;;;;5071142;28;19975;-69
2022/05/17 08:58:00;;;;;;;15.02;2.90;;;19.10;72.00;;;;;;5071808;28;20044;-70
2022/05/17 09:00:41;;;;;;;11.90;4.15;;;19.10;71.20;;;;;;5075965;28;20036;-70
2022/05/17 09:03:16;;;;;;;13.30;3.08;;;19.10;69.30;;;;;;5091983;28;20048;-71
2022/05/17 09:06:08;;;;;;;14.13;3.53;;;19.10;69.90;;;;;;5092050;28;20040;-70
2022/05/17 09:09:12;;;;;;;21.05;4.40;;;19.30;70.20;;;;;;5090767;28;20080;-70
2022/05/17 09:11:52;;;;;;;12.23;3.28;;;19.50;70.40;;;;;;5062665;28;20084;-69
2022/05/17 09:14:26;;;;;;;10.32;2.78;;;19.50;70.10;;;;;;5071598;28;20056;-70
2022/05/17 09:17:09;;;;;;;11.32;3.22;;;19.50;69.40;;;;;;5079432;28;20558;-69
2022/05/17 09:19:34;;;;;;;14.50;2.88;;;19.60;67.70;;;;;;5081799;28;20068;-70
2022/05/17 09:22:01;;;;;;;12.75;3.70;;;19.60;67.90;;;;;;5078956;28;20500;-70
2022/05/17 09:24:36;;;;;;;15.95;3.47;;;19.60;67.80;;;;;;5073622;28;20044;-70
2022/05/17 09:27:10;;;;;;;10.43;2.22;;;19.60;66.40;;;;;;5070473;28;20056;-69
2022/05/17 09:29:46;;;;;;;11.68;2.70;;;19.70;65.40;;;;;;5072292;28;20459;-69
2022/05/17 09:32:22;;;;;;;12.60;2.78;;;19.70;65.00;;;;;;5075426;28;20061;-68
2022/05/17 09:34:58;;;;;;;8.77;1.52;;;19.80;65.30;;;;;;5079744;28;20072;-69
2022/05/17 09:37:31;;;;;;;9.35;2.45;;;19.80;64.60;;;;;;5078226;28;20033;-69
2022/05/17 09:39:57;;;;;;;8.80;1.77;;;19.90;63.70;;;;;;5078838;28;20048;-69
2022/05/17 09:42:42;;;;;;;16.00;3.30;;;19.90;63.30;;;;;;5078899;28;20048;-69
2022/05/17 09:45:14;;;;;;;18.13;2.63;;;20.00;62.40;;;;;;5075282;28;20050;-69
2022/05/17 09:47:55;;;;;;;9.80;2.40;;;20.10;63.70;;;;;;5078132;28;20082;-69
2022/05/17 09:53:10;;;;;;;8.45;2.22;;;20.20;62.40;;;;;;5089602;28;20040;-69
2022/05/17 09:55:36;;;;;;;13.07;2.58;;;20.20;61.70;;;;;;5089670;28;20477;-69
2022/05/17 09:58:06;;;;;;;12.18;2.45;;;20.30;61.90;;;;;;5082208;28;20046;-69
2022/05/17 10:00:49;;;;;;;7.00;1.58;;;20.40;62.50;;;;;;5079117;28;20599;-70
2022/05/17 10:03:15;;;;;;;10.27;1.63;;;20.40;60.40;;;;;;5084325;28;20485;-69
2022/05/17 10:05:40;;;;;;;11.80;2.28;;;20.50;61.80;;;;;;5084720;28;20042;-69
2022/05/17 10:08:12;;;;;;;8.57;2.58;;;20.50;61.40;;;;;;5082324;28;20047;-70
2022/05/17 10:10:44;;;;;;;13.07;2.28;;;20.60;60.80;;;;;;5071096;28;20146;-71
2022/05/17 10:13:28;;;;;;;8.95;2.45;;;20.60;61.30;;;;;;5075575;28;20044;-70
2022/05/17 10:16:12;;;;;;;10.95;1.80;;;20.80;61.60;;;;;;5088754;28;20055;-71
2022/05/17 10:18:53;;;;;;;13.30;4.05;;;20.90;61.20;;;;;;5090474;28;20052;-70
2022/05/17 10:21:44;;;;;;;13.13;1.88;;;20.80;61.10;;;;;;5073074;28;20528;-70
2022/05/17 10:24:27;;;;;;;13.75;3.15;;;20.90;60.90;;;;;;5071236;28;20048;-70
2022/05/17 10:27:09;;;;;;;9.45;1.90;;;20.80;60.30;;;;;;5076913;28;20159;-71
2022/05/17 10:29:46;;;;;;;8.40;1.88;;;21.00;61.00;;;;;;5079091;28;20059;-70
2022/05/17 10:32:41;;;;;;;13.50;1.98;;;21.10;60.80;;;;;;5075971;28;20040;-71
2022/05/17 10:35:24;;;;;;;8.27;1.60;;;21.10;59.50;;;;;;5071404;28;20053;-71
2022/05/17 10:37:59;;;;;;;11.27;2.42;;;21.10;60.50;;;;;;5089359;28;20079;-71
2022/05/17 10:40:34;;;;;;;8.88;1.92;;;21.20;59.40;;;;;;5072931;28;20045;-71
2022/05/17 10:43:01;;;;;;;9.90;2.28;;;21.20;59.40;;;;;;5083389;28;20516;-70
2022/05/17 10:45:33;;;;;;;7.80;2.30;;;21.20;59.00;;;;;;5071789;28;20029;-70
2022/05/17 10:48:22;;;;;;;16.55;2.00;;;21.30;58.80;;;;;;5069157;28;20481;-70
2022/05/17 10:51:07;;;;;;;9.75;2.10;;;21.30;58.30;;;;;;5085563;28;20040;-70
2022/05/17 10:54:14;;;;;;;12.63;3.55;;;21.40;58.70;;;;;;5079383;28;20051;-70
2022/05/17 10:56:46;;;;;;;8.63;2.20;;;21.50;57.70;;;;;;5069194;28;20053;-71
2022/05/17 10:59:39;;;;;;;8.55;1.85;;;21.50;58.40;;;;;;5079459;28;20447;-71
2022/05/17 11:02:13;;;;;;;9.65;1.88;;;21.60;57.00;;;;;;5076618;28;20090;-71
2022/05/17 11:05:08;;;;;;;9.32;1.50;;;21.70;56.00;;;;;;5084451;28;20043;-72
2022/05/17 11:07:53;;;;;;;7.35;1.67;;;21.80;56.30;;;;;;5071890;28;20052;-72
2022/05/17 11:10:37;;;;;;;5.80;1.58;;;21.80;56.30;;;;;;5083203;28;20130;-71
2022/05/17 11:13:19;;;;;;;8.40;1.92;;;21.90;55.20;;;;;;5080385;28;20197;-71
2022/05/17 11:16:08;;;;;;;9.48;2.08;;;21.90;54.80;;;;;;5089293;28;20404;-71
2022/05/17 11:18:53;;;;;;;7.65;1.55;;;21.80;54.10;;;;;;5088678;28;20032;-71
2022/05/17 11:21:27;;;;;;;7.45;1.67;;;21.80;55.00;;;;;;5076434;28;20036;-72
2022/05/17 11:24:14;;;;;;;11.18;2.33;;;21.80;56.00;;;;;;5090169;28;20067;-71
2022/05/17 11:26:58;;;;;;;10.68;2.30;;;21.90;54.50;;;;;;5071025;28;20083;-71
2022/05/17 11:29:59;;;;;;;8.85;2.00;;;22.00;55.20;;;;;;5074800;28;20507;-71
2022/05/17 11:32:31;;;;;;;6.93;1.55;;;22.10;55.40;;;;;;5083775;28;20044;-71
2022/05/17 11:35:02;;;;;;;9.65;2.13;;;22.10;55.10;;;;;;5089609;28;21120;-71
2022/05/17 11:37:33;;;;;;;9.13;2.88;;;22.10;55.30;;;;;;5078304;28;20120;-71
2022/05/17 11:40:07;;;;;;;7.80;2.00;;;22.00;54.20;;;;;;5079334;28;20481;-71
2022/05/17 11:43:40;;;;;;;9.68;1.63;;;21.80;54.40;;;;;;5083376;28;20040;-71
2022/05/17 11:45:44;;;;;;;9.67;2.30;;;21.70;54.10;;;;;;5090651;28;20040;-69
2022/05/17 11:48:19;;;;;;;6.32;1.42;;;21.70;54.50;;;;;;5082393;28;20036;-67
2022/05/17 11:51:01;;;;;;;7.22;1.65;;;21.80;54.80;;;;;;5100603;28;20036;-68
2022/05/17 11:53:27;;;;;;;7.07;3.10;;;22.10;53.40;;;;;;5088744;28;20059;-68
2022/05/17 11:56:20;;;;;;;11.15;1.85;;;22.20;53.20;;;;;;5072273;28;20045;-68
2022/05/17 11:58:49;;;;;;;8.35;1.75;;;22.50;52.10;;;;;;5069821;28;20986;-68
2022/05/17 12:01:30;;;;;;;11.40;1.83;;;22.40;52.20;;;;;;5076475;28;20044;-66
2022/05/17 12:04:02;;;;;;;13.20;1.90;;;22.50;50.90;;;;;;5083654;28;20036;-68
2022/05/17 12:06:38;;;;;;;7.32;1.35;;;22.50;51.40;;;;;;5083776;28;21158;-68
2022/05/17 12:09:25;;;;;;;7.95;1.63;;;22.60;50.80;;;;;;5073097;28;20025;-68
2022/05/17 12:12:13;;;;;;;4.88;1.10;;;22.60;48.80;;;;;;5080462;28;20078;-68
2022/05/17 12:15:03;;;;;;;11.35;1.83;;;22.70;49.30;;;;;;5073941;28;20493;-69
2022/05/17 12:17:44;;;;;;;7.88;1.77;;;22.80;50.00;;;;;;5072722;28;20658;-70
2022/05/17 12:20:20;;;;;;;7.95;2.33;;;22.90;49.20;;;;;;5087146;28;20044;-69
2022/05/17 12:22:55;;;;;;;5.82;1.10;;;22.90;48.20;;;;;;5083948;28;20043;-71
2022/05/17 12:25:42;;;;;;;14.88;2.13;;;23.00;47.30;;;;;;5075984;28;20044;-70
2022/05/17 12:28:19;;;;;;;6.43;1.70;;;23.10;48.00;;;;;;5079000;28;20033;-69
2022/05/17 12:30:59;;;;;;;9.10;2.75;;;23.30;47.80;;;;;;5080343;28;20090;-69
2022/05/17 12:33:29;;;;;;;5.50;1.27;;;23.40;47.00;;;;;;5073840;28;20049;-68
2022/05/17 12:36:10;;;;;;;10.07;2.50;;;23.30;47.00;;;;;;5083054;28;20389;-68
2022/05/17 12:44:15;;;;;;;10.73;1.67;;;23.30;46.90;;;;;;5088455;28;20044;-69
2022/05/17 12:46:41;;;;;;;9.73;1.83;;;23.50;47.00;;;;;;5083939;28;20052;-68
2022/05/17 12:49:15;;;;;;;8.25;1.75;;;23.70;46.70;;;;;;5076887;28;20549;-68
2022/05/17 12:51:41;;;;;;;10.13;1.60;;;23.90;46.50;;;;;;5072102;28;20116;-68
2022/05/17 12:54:13;;;;;;;7.35;1.80;;;24.00;46.70;;;;;;5073721;28;20044;-69
2022/05/17 12:56:43;;;;;;;5.75;1.45;;;24.10;46.10;;;;;;5076554;28;20551;-69
2022/05/17 12:59:10;;;;;;;9.15;2.70;;;24.10;46.20;;;;;;5081320;28;20040;-68
2022/05/17 13:01:38;;;;;;;11.35;1.80;;;24.20;46.90;;;;;;5073057;28;20111;-69
2022/05/17 13:04:09;;;;;;;7.25;2.50;;;24.40;47.10;;;;;;5079474;28;20050;-68
2022/05/17 13:06:46;;;;;;;7.05;1.83;;;24.50;46.90;;;;;;5084090;28;20044;-68
2022/05/17 13:09:22;;;;;;;7.68;1.85;;;24.50;46.50;;;;;;5084571;28;20048;-68
2022/05/17 13:11:48;;;;;;;12.13;2.15;;;24.60;46.70;;;;;;5083631;28;20397;-68